Aviation Digital Data Service (ADDS)

Output produced by METARs form (1942 UTC 28 April 2015)
found at http://www.aviationweather.gov/adds/metars/
 
KBMI 281720Z 2818/2918 03006KT P6SM SKC